createdAt,value
2018-03-29T00:00:19.024Z,3.70
2018-03-29T00:02:48.654Z,4.45
2018-03-29T00:05:16.419Z,2.92
2018-03-29T00:07:45.011Z,6.93
2018-03-29T00:10:12.893Z,2.58
2018-03-29T00:12:41.609Z,2.75
2018-03-29T00:15:09.578Z,2.83
2018-03-29T00:17:37.562Z,4.90
2018-03-29T00:20:07.515Z,3.35
2018-03-29T00:22:35.344Z,2.33
2018-03-29T00:25:03.206Z,4.50
2018-03-29T00:27:31.059Z,2.25
2018-03-29T00:29:59.808Z,5.32
2018-03-29T00:32:28.478Z,4.15
2018-03-29T00:34:57.078Z,4.18
2018-03-29T00:37:24.982Z,7.78
2018-03-29T00:39:53.622Z,5.20
2018-03-29T00:42:21.541Z,3.03
2018-03-29T00:44:49.386Z,3.55
2018-03-29T00:47:17.164Z,5.10
2018-03-29T00:49:45.735Z,4.05
2018-03-29T00:52:14.281Z,3.95
2018-03-29T00:54:41.958Z,6.25
2018-03-29T00:57:09.852Z,3.05
2018-03-29T00:59:37.659Z,5.65
2018-03-29T01:02:05.631Z,5.45
2018-03-29T01:04:33.448Z,3.58
2018-03-29T01:07:01.251Z,4.00
2018-03-29T01:09:30.647Z,3.90
2018-03-29T01:11:58.509Z,5.40
2018-03-29T01:14:26.254Z,4.07
2018-03-29T01:16:54.135Z,7.55
2018-03-29T01:19:22.382Z,5.90
2018-03-29T01:21:50.298Z,6.15
2018-03-29T01:24:18.059Z,6.55
2018-03-29T01:26:45.867Z,5.68
2018-03-29T01:29:13.704Z,4.37
2018-03-29T01:31:41.402Z,6.18
2018-03-29T01:34:09.068Z,6.00
2018-03-29T01:36:36.961Z,6.50
2018-03-29T01:39:04.658Z,6.15
2018-03-29T01:41:32.506Z,6.75
2018-03-29T01:44:00.412Z,6.20
2018-03-29T01:46:28.290Z,5.65
2018-03-29T01:48:56.056Z,5.35
2018-03-29T01:51:24.041Z,5.25
2018-03-29T01:53:51.831Z,8.52
2018-03-29T01:56:20.448Z,6.53
2018-03-29T01:58:49.172Z,5.62
2018-03-29T02:01:17.161Z,6.18
2018-03-29T02:03:45.068Z,4.15
2018-03-29T02:06:12.955Z,4.43
2018-03-29T02:08:40.716Z,6.95
2018-03-29T02:11:08.588Z,6.18
2018-03-29T02:13:36.451Z,5.78
2018-03-29T02:16:04.251Z,7.57
2018-03-29T02:18:32.188Z,7.37
2018-03-29T02:21:00.087Z,4.85
2018-03-29T02:23:27.851Z,5.53
2018-03-29T02:25:56.464Z,15.10
2018-03-29T02:28:25.128Z,4.35
2018-03-29T02:30:53.053Z,4.03
2018-03-29T02:33:20.911Z,5.90
2018-03-29T02:35:49.669Z,7.72
2018-03-29T02:38:17.403Z,5.12
2018-03-29T02:40:45.168Z,7.43
2018-03-29T02:43:13.847Z,7.53
2018-03-29T02:45:42.371Z,8.50
2018-03-29T02:48:10.134Z,8.18
2018-03-29T02:50:38.029Z,5.03
2018-03-29T02:53:06.889Z,12.25
2018-03-29T02:55:34.620Z,8.27
2018-03-29T02:58:02.465Z,6.25
2018-03-29T03:00:30.260Z,7.15
2018-03-29T03:02:58.923Z,7.18
2018-03-29T03:05:27.523Z,12.85
2018-03-29T03:07:55.362Z,6.93
2018-03-29T03:10:23.298Z,6.03
2018-03-29T03:12:51.182Z,4.30
2018-03-29T03:15:18.895Z,4.47
2018-03-29T03:17:47.553Z,7.32
2018-03-29T03:20:15.390Z,7.22
2018-03-29T03:22:44.024Z,7.70
2018-03-29T03:25:12.430Z,8.57
2018-03-29T03:27:41.109Z,4.90
2018-03-29T03:30:09.006Z,8.32
2018-03-29T03:32:36.846Z,5.20
2018-03-29T03:35:04.672Z,5.50
2018-03-29T03:37:33.251Z,8.82
2018-03-29T03:40:01.192Z,5.22
2018-03-29T03:42:29.885Z,4.57
2018-03-29T03:44:57.628Z,4.53
2018-03-29T03:47:26.274Z,6.80
2018-03-29T03:49:54.152Z,5.70
2018-03-29T03:52:21.679Z,5.95
2018-03-29T03:54:49.181Z,6.03
2018-03-29T03:57:17.468Z,6.10
2018-03-29T03:59:45.003Z,5.37
2018-03-29T04:02:12.539Z,6.90
2018-03-29T04:04:40.035Z,6.00
2018-03-29T04:07:08.384Z,5.43
2018-03-29T04:09:35.884Z,7.18
2018-03-29T04:12:04.174Z,10.15
2018-03-29T04:14:31.671Z,8.23
2018-03-29T04:16:59.190Z,5.40
2018-03-29T04:19:28.309Z,7.78
2018-03-29T04:21:56.622Z,6.22
2018-03-29T04:24:24.244Z,6.20
2018-03-29T04:26:51.769Z,6.62
2018-03-29T04:29:20.088Z,6.12
2018-03-29T04:31:47.999Z,8.38
2018-03-29T04:34:16.240Z,6.05
2018-03-29T04:36:44.472Z,5.82
2018-03-29T04:39:13.307Z,8.45
2018-03-29T04:41:40.952Z,6.03
2018-03-29T04:44:08.562Z,7.05
2018-03-29T04:46:36.208Z,6.03
2018-03-29T04:49:04.639Z,7.70
2018-03-29T04:51:32.303Z,7.53
2018-03-29T04:54:00.699Z,8.40
2018-03-29T04:56:28.255Z,10.27
2018-03-29T04:58:56.403Z,8.80
2018-03-29T05:01:24.247Z,7.45
2018-03-29T05:03:51.890Z,9.05
2018-03-29T05:06:19.459Z,5.47
2018-03-29T05:08:46.976Z,8.50
2018-03-29T05:11:15.243Z,5.37
2018-03-29T05:13:44.125Z,7.37
2018-03-29T05:16:13.151Z,8.27
2018-03-29T05:18:40.672Z,8.85
2018-03-29T05:21:08.480Z,12.37
2018-03-29T05:23:36.167Z,17.48
2018-03-29T05:26:06.567Z,16.50
2018-03-29T05:28:34.084Z,18.10
2018-03-29T05:31:01.596Z,21.58
2018-03-29T05:33:29.111Z,16.65
2018-03-29T05:35:56.619Z,19.12
2018-03-29T05:38:24.619Z,36.85
2018-03-29T05:40:52.124Z,15.68
2018-03-29T05:43:20.406Z,14.02
2018-03-29T05:45:48.137Z,11.82
2018-03-29T05:48:15.667Z,17.55
2018-03-29T05:50:43.182Z,12.05
2018-03-29T05:53:11.461Z,9.60
2018-03-29T05:55:39.734Z,8.40
2018-03-29T05:58:08.019Z,8.43
2018-03-29T06:00:35.520Z,9.27
2018-03-29T06:03:03.964Z,7.90
2018-03-29T06:05:31.838Z,9.35
2018-03-29T06:07:59.358Z,8.35
2018-03-29T06:10:26.859Z,8.48
2018-03-29T06:12:55.339Z,7.62
2018-03-29T06:15:23.118Z,10.35
2018-03-29T06:17:56.203Z,19.17
2018-03-29T06:20:23.722Z,10.65
2018-03-29T06:22:53.244Z,9.85
2018-03-29T06:25:21.704Z,8.82
2018-03-29T06:27:49.302Z,8.18
2018-03-29T06:30:17.575Z,7.97
2018-03-29T06:32:45.100Z,7.15
2018-03-29T06:35:12.916Z,7.28
2018-03-29T06:37:40.563Z,8.25
2018-03-29T06:40:08.871Z,12.60
2018-03-29T06:42:36.398Z,7.45
2018-03-29T06:45:04.708Z,8.25
2018-03-29T06:47:32.238Z,7.57
2018-03-29T06:50:00.584Z,9.40
2018-03-29T06:52:28.047Z,9.98
2018-03-29T06:54:55.574Z,11.70
2018-03-29T06:57:23.074Z,7.35
2018-03-29T06:59:50.614Z,7.95
2018-03-29T07:02:18.115Z,15.38
2018-03-29T07:04:46.524Z,8.38
2018-03-29T07:07:14.878Z,10.13
2018-03-29T07:09:43.154Z,6.82
2018-03-29T07:12:13.266Z,6.15
2018-03-29T07:14:41.620Z,9.15
2018-03-29T07:17:09.316Z,11.00
2018-03-29T07:19:37.600Z,6.97
2018-03-29T07:22:06.361Z,8.23
2018-03-29T07:24:33.924Z,8.05
2018-03-29T07:27:01.526Z,6.03
2018-03-29T07:29:29.423Z,7.18
2018-03-29T07:31:57.193Z,10.45
2018-03-29T07:34:25.914Z,7.47
2018-03-29T07:36:54.481Z,6.53
2018-03-29T07:39:23.232Z,6.55
2018-03-29T07:41:50.958Z,5.95
2018-03-29T07:44:18.956Z,7.45
2018-03-29T07:46:46.653Z,6.80
2018-03-29T07:49:15.391Z,10.55
2018-03-29T07:51:43.075Z,6.60
2018-03-29T07:54:11.744Z,8.50
2018-03-29T07:56:40.716Z,5.03
2018-03-29T07:59:09.071Z,6.00
2018-03-29T08:01:36.823Z,6.32
2018-03-29T08:04:04.538Z,7.45
2018-03-29T08:06:33.443Z,7.65
2018-03-29T08:09:01.944Z,6.45
2018-03-29T08:11:29.676Z,7.45
2018-03-29T08:13:58.275Z,5.97
2018-03-29T08:16:26.932Z,8.10
2018-03-29T08:18:54.910Z,5.28
2018-03-29T08:21:22.828Z,5.80
2018-03-29T08:23:50.775Z,7.10
2018-03-29T08:26:19.482Z,8.27
2018-03-29T08:28:47.400Z,9.27
2018-03-29T08:31:16.124Z,7.05
2018-03-29T08:33:44.562Z,6.80
2018-03-29T08:36:12.418Z,7.05
2018-03-29T08:38:40.908Z,9.02
2018-03-29T08:41:10.044Z,10.15
2018-03-29T08:43:37.968Z,6.95
2018-03-29T08:46:05.871Z,7.85
2018-03-29T08:48:34.094Z,6.18
2018-03-29T08:51:01.963Z,6.22
2018-03-29T08:53:29.924Z,6.72
2018-03-29T08:55:57.893Z,10.07
2018-03-29T08:58:25.814Z,7.12
2018-03-29T09:00:54.559Z,5.95
2018-03-29T09:03:22.599Z,6.45
2018-03-29T09:05:52.163Z,6.10
2018-03-29T09:08:20.432Z,8.02
2018-03-29T09:10:48.369Z,7.55
2018-03-29T09:13:16.990Z,7.15
2018-03-29T09:15:44.501Z,5.80
2018-03-29T09:18:11.999Z,4.37
2018-03-29T09:20:39.514Z,6.30
2018-03-29T09:23:07.914Z,5.10
2018-03-29T09:25:35.435Z,3.65
2018-03-29T09:28:03.719Z,4.30
2018-03-29T09:30:31.654Z,4.22
2018-03-29T09:33:00.009Z,6.62
2018-03-29T09:35:27.546Z,5.60
2018-03-29T09:38:09.606Z,4.90
2018-03-29T09:40:37.138Z,6.60
2018-03-29T09:43:05.414Z,8.45
2018-03-29T09:45:33.690Z,4.60
2018-03-29T09:48:01.182Z,4.65
2018-03-29T09:50:28.707Z,3.45
2018-03-29T09:52:56.974Z,3.80
2018-03-29T09:55:24.488Z,4.05
2018-03-29T09:57:51.981Z,4.07
2018-03-29T10:00:25.076Z,3.92
2018-03-29T10:02:55.373Z,5.68
2018-03-29T10:05:28.484Z,6.32
2018-03-29T10:07:55.986Z,17.67
2018-03-29T10:10:24.266Z,3.62
2018-03-29T10:12:52.530Z,5.18
2018-03-29T10:15:20.815Z,3.40
2018-03-29T10:17:49.223Z,6.25
2018-03-29T10:20:16.732Z,6.18
2018-03-29T10:22:44.231Z,5.75
2018-03-29T10:25:15.108Z,4.60
2018-03-29T10:27:42.838Z,4.35
2018-03-29T10:30:10.415Z,5.15
2018-03-29T10:32:38.639Z,6.43
2018-03-29T10:35:06.131Z,4.03
2018-03-29T10:37:33.646Z,4.55
2018-03-29T10:40:01.146Z,3.45
2018-03-29T10:42:29.589Z,3.92
2018-03-29T10:44:57.086Z,4.50
2018-03-29T10:47:24.598Z,5.32
2018-03-29T10:49:52.092Z,3.37
2018-03-29T10:52:26.902Z,5.72
2018-03-29T10:54:54.385Z,3.42
2018-03-29T10:57:22.666Z,5.22
2018-03-29T10:59:50.931Z,4.00
2018-03-29T11:02:19.214Z,6.53
2018-03-29T11:04:47.479Z,5.45
2018-03-29T11:07:15.766Z,6.97
2018-03-29T11:09:44.026Z,3.67
2018-03-29T11:12:11.542Z,6.47
2018-03-29T11:14:39.039Z,3.00
2018-03-29T11:17:06.560Z,3.53
2018-03-29T11:19:34.055Z,6.80
2018-03-29T11:22:01.567Z,6.28
2018-03-29T11:24:29.071Z,3.75
2018-03-29T11:26:56.582Z,3.97
2018-03-29T11:29:24.084Z,5.85
2018-03-29T11:31:51.596Z,6.35
2018-03-29T11:34:19.090Z,4.97
2018-03-29T11:36:46.611Z,3.78
2018-03-29T11:39:14.106Z,3.05
2018-03-29T11:41:41.618Z,3.00
2018-03-29T11:44:09.878Z,4.60
2018-03-29T11:46:37.404Z,2.90
2018-03-29T11:49:04.899Z,3.50
2018-03-29T11:51:32.413Z,3.35
2018-03-29T11:53:59.906Z,6.70
2018-03-29T11:56:27.418Z,4.35
2018-03-29T11:58:54.913Z,4.75
2018-03-29T12:01:22.426Z,6.93
2018-03-29T12:03:49.920Z,3.50
2018-03-29T12:06:17.410Z,9.25
2018-03-29T12:08:44.920Z,3.58
2018-03-29T12:11:12.451Z,5.40
2018-03-29T12:13:40.723Z,3.70
2018-03-29T12:16:09.017Z,6.30
2018-03-29T12:18:36.534Z,4.25
2018-03-29T12:21:04.038Z,6.78
2018-03-29T12:23:32.323Z,4.47
2018-03-29T12:25:59.810Z,8.15
2018-03-29T12:28:27.327Z,3.40
2018-03-29T12:30:55.607Z,4.70
2018-03-29T12:33:23.886Z,8.32
2018-03-29T12:35:52.146Z,3.70
2018-03-29T12:38:19.650Z,3.90
2018-03-29T12:40:47.147Z,2.30
2018-03-29T12:43:14.654Z,2.92
2018-03-29T12:45:42.142Z,4.05
2018-03-29T12:48:09.671Z,5.12
2018-03-29T12:50:37.186Z,3.15
2018-03-29T12:53:04.695Z,3.90
2018-03-29T12:55:43.478Z,4.00
2018-03-29T12:58:11.792Z,3.47
2018-03-29T13:00:39.285Z,3.85
2018-03-29T13:03:06.797Z,2.40
2018-03-29T13:05:34.294Z,3.83
2018-03-29T13:08:01.811Z,4.10
2018-03-29T13:10:30.079Z,3.28
2018-03-29T13:12:57.593Z,4.68
2018-03-29T13:15:25.098Z,3.37
2018-03-29T13:17:53.388Z,5.68
2018-03-29T13:20:21.651Z,6.03
2018-03-29T13:22:49.938Z,6.00
2018-03-29T13:25:18.242Z,8.90
2018-03-29T13:27:46.658Z,7.10
2018-03-29T13:30:14.152Z,7.18
2018-03-29T13:32:42.430Z,8.65
2018-03-29T13:35:10.692Z,6.62
2018-03-29T13:37:38.201Z,7.05
2018-03-29T13:40:05.701Z,6.62
2018-03-29T13:42:33.218Z,9.40
2018-03-29T13:45:00.734Z,6.55
2018-03-29T13:47:28.222Z,7.15
2018-03-29T13:49:56.499Z,5.97
2018-03-29T13:52:24.761Z,8.35
2018-03-29T13:54:53.035Z,5.97
2018-03-29T13:57:21.303Z,4.30
2018-03-29T13:59:48.818Z,8.00
2018-03-29T14:02:16.310Z,8.32
2018-03-29T14:04:43.814Z,8.82
2018-03-29T14:07:11.306Z,3.97
2018-03-29T14:09:38.826Z,8.63
2018-03-29T14:12:07.091Z,6.20
2018-03-29T14:14:35.369Z,5.47
2018-03-29T14:17:03.640Z,7.70
2018-03-29T14:19:31.918Z,6.40
2018-03-29T14:22:00.183Z,5.50
2018-03-29T14:24:27.703Z,5.70
2018-03-29T14:26:55.201Z,6.22
2018-03-29T14:29:22.716Z,5.28
2018-03-29T14:31:50.219Z,4.97
2018-03-29T14:34:17.743Z,4.50
2018-03-29T14:36:45.250Z,5.25
2018-03-29T14:39:13.538Z,5.40
2018-03-29T14:41:41.807Z,5.90
2018-03-29T14:44:10.089Z,7.62
2018-03-29T14:46:38.358Z,5.53
2018-03-29T14:49:06.642Z,4.47
2018-03-29T14:51:34.905Z,4.65
2018-03-29T14:54:02.426Z,7.47
2018-03-29T14:56:30.695Z,10.68
2018-03-29T14:58:58.200Z,3.92
2018-03-29T15:01:25.702Z,10.00
2018-03-29T15:03:53.219Z,3.47
2018-03-29T15:06:20.718Z,2.75
2018-03-29T15:08:48.237Z,3.75
2018-03-29T15:11:15.734Z,6.10
2018-03-29T15:13:43.313Z,3.12
2018-03-29T15:16:10.753Z,4.10
2018-03-29T15:18:39.019Z,5.50
2018-03-29T15:21:07.304Z,9.52
2018-03-29T15:23:35.570Z,3.67
2018-03-29T15:26:03.851Z,2.72
2018-03-29T15:28:32.123Z,6.87
2018-03-29T15:31:00.398Z,4.40
2018-03-29T15:33:28.662Z,3.72
2018-03-29T15:35:56.174Z,2.58
2018-03-29T15:38:23.666Z,5.45
2018-03-29T15:40:51.172Z,4.90
2018-03-29T15:43:19.438Z,3.40
2018-03-29T15:45:47.722Z,6.50
2018-03-29T15:48:15.987Z,6.35
2018-03-29T15:50:44.275Z,4.12
2018-03-29T15:53:12.543Z,13.23
2018-03-29T15:55:40.823Z,5.32
2018-03-29T15:58:09.089Z,4.70
2018-03-29T16:00:37.374Z,2.60
2018-03-29T16:03:05.699Z,3.40
2018-03-29T16:05:33.229Z,2.28
2018-03-29T16:08:00.746Z,6.00
2018-03-29T16:10:28.324Z,5.87
2018-03-29T16:12:55.850Z,6.25
2018-03-29T16:15:23.370Z,9.65
2018-03-29T16:17:50.941Z,9.25
2018-03-29T16:20:18.540Z,9.43
2018-03-29T16:22:46.063Z,3.40
2018-03-29T16:25:13.651Z,5.25
2018-03-29T16:27:41.147Z,4.40
2018-03-29T16:30:08.736Z,6.12
2018-03-29T16:32:36.283Z,3.85
2018-03-29T16:35:03.868Z,3.30
2018-03-29T16:37:31.493Z,3.50
2018-03-29T16:39:59.047Z,10.10
2018-03-29T16:42:26.558Z,5.80
2018-03-29T16:44:54.103Z,5.05
2018-03-29T16:47:21.631Z,5.55
2018-03-29T16:49:49.149Z,5.18
2018-03-29T16:52:16.655Z,3.25
2018-03-29T16:54:44.175Z,5.87
2018-03-29T16:57:11.684Z,3.90
2018-03-29T16:59:39.964Z,15.90
2018-03-29T17:02:08.255Z,9.98
2018-03-29T17:04:35.752Z,7.30
2018-03-29T17:07:03.274Z,7.68
2018-03-29T17:09:31.569Z,17.23
2018-03-29T17:11:59.107Z,7.30
2018-03-29T17:14:27.387Z,4.07
2018-03-29T17:16:54.946Z,4.55
2018-03-29T17:19:23.218Z,3.00
2018-03-29T17:21:51.511Z,5.18
2018-03-29T17:24:19.022Z,4.15
2018-03-29T17:26:46.549Z,3.53
2018-03-29T17:29:14.074Z,3.12
2018-03-29T17:31:41.635Z,3.80
2018-03-29T17:34:09.255Z,3.85
2018-03-29T17:36:36.795Z,11.07
2018-03-29T17:39:04.354Z,5.65
2018-03-29T17:41:31.884Z,8.57
2018-03-29T17:43:59.399Z,9.65
2018-03-29T17:46:26.923Z,4.45
2018-03-29T17:48:54.439Z,12.77
2018-03-29T17:51:21.996Z,18.45
2018-03-29T17:53:50.332Z,18.98
2018-03-29T17:56:17.848Z,9.85
2018-03-29T17:58:46.111Z,6.25
2018-03-29T18:01:13.643Z,5.28
2018-03-29T18:03:41.160Z,8.38
2018-03-29T18:06:09.490Z,5.90
2018-03-29T18:08:36.995Z,16.12
2018-03-29T18:11:05.274Z,5.32
2018-03-29T18:13:33.536Z,8.07
2018-03-29T18:16:01.807Z,4.57
2018-03-29T18:18:30.094Z,5.93
2018-03-29T18:20:58.420Z,15.25
2018-03-29T18:23:26.673Z,17.15
2018-03-29T18:25:54.175Z,16.08
2018-03-29T18:28:21.686Z,26.15
2018-03-29T18:30:49.958Z,15.55
2018-03-29T18:33:18.230Z,12.00
2018-03-29T18:35:46.491Z,11.98
2018-03-29T18:38:14.011Z,15.55
2018-03-29T18:40:42.274Z,6.10
2018-03-29T18:43:09.787Z,7.37
2018-03-29T18:45:37.296Z,13.75
2018-03-29T18:48:04.828Z,15.32
2018-03-29T18:50:33.098Z,12.73
2018-03-29T18:53:01.382Z,26.02
2018-03-29T18:55:29.645Z,21.42
2018-03-29T18:57:57.934Z,40.42
2018-03-29T19:00:26.210Z,50.33
2018-03-29T19:02:54.490Z,37.33
2018-03-29T19:05:22.754Z,22.95
2018-03-29T19:07:50.271Z,20.37
2018-03-29T19:10:17.782Z,20.58
2018-03-29T19:12:46.062Z,16.30
2018-03-29T19:15:14.327Z,15.35
2018-03-29T19:17:42.614Z,23.85
2018-03-29T19:20:10.913Z,23.10
2018-03-29T19:22:38.445Z,30.88
2018-03-29T19:25:06.723Z,23.50
2018-03-29T19:27:35.014Z,33.35
2018-03-29T19:30:03.307Z,32.17
2018-03-29T19:32:30.822Z,29.67
2018-03-29T19:34:58.371Z,29.90
2018-03-29T19:37:25.869Z,23.85
2018-03-29T19:39:54.159Z,26.12
2018-03-29T19:42:21.662Z,23.25
2018-03-29T19:44:49.178Z,28.95
2018-03-29T19:47:17.446Z,24.35
2018-03-29T19:49:45.776Z,27.65
2018-03-29T19:52:13.338Z,27.15
2018-03-29T19:54:40.903Z,24.10
2018-03-29T19:57:08.410Z,19.45
2018-03-29T19:59:35.946Z,23.58
2018-03-29T20:02:04.234Z,20.85
2018-03-29T20:04:32.521Z,20.15
2018-03-29T20:07:01.030Z,25.95
2018-03-29T20:09:28.562Z,15.10
2018-03-29T20:11:56.842Z,16.25
2018-03-29T20:14:25.127Z,13.15
2018-03-29T20:16:52.727Z,15.48
2018-03-29T20:19:20.963Z,21.95
2018-03-29T20:21:49.242Z,11.23
2018-03-29T20:24:16.779Z,11.75
2018-03-29T20:26:44.274Z,19.75
2018-03-29T20:29:11.801Z,12.77
2018-03-29T20:31:40.076Z,8.80
2018-03-29T20:34:07.604Z,11.77
2018-03-29T20:36:35.119Z,12.40
2018-03-29T20:39:03.387Z,14.20
2018-03-29T20:41:31.675Z,13.30
2018-03-29T20:43:59.188Z,13.05
2018-03-29T20:46:26.710Z,15.85
2018-03-29T20:48:54.215Z,11.57
2018-03-29T20:51:21.742Z,10.55
2018-03-29T20:53:49.258Z,12.73
2018-03-29T20:56:18.288Z,18.48
2018-03-29T20:58:45.794Z,16.73
2018-03-29T21:01:13.318Z,10.43
2018-03-29T21:03:40.818Z,8.70
2018-03-29T21:06:08.347Z,19.05
2018-03-29T21:08:35.850Z,10.18
2018-03-29T21:11:04.158Z,10.77
2018-03-29T21:13:31.666Z,16.37
2018-03-29T21:15:59.198Z,12.70
2018-03-29T21:18:26.702Z,12.48
2018-03-29T21:20:54.990Z,10.77
2018-03-29T21:23:23.298Z,10.65
2018-03-29T21:25:50.806Z,9.68
2018-03-29T21:28:18.317Z,15.07
2018-03-29T21:30:45.839Z,10.93
2018-03-29T21:33:14.342Z,9.15
2018-03-29T21:35:41.898Z,17.42
2018-03-29T21:38:10.165Z,10.88
2018-03-29T21:40:38.463Z,13.15
2018-03-29T21:43:06.064Z,14.63
2018-03-29T21:45:33.522Z,16.73
2018-03-29T21:48:01.032Z,11.48
2018-03-29T21:50:29.651Z,21.23
2018-03-29T21:52:57.160Z,16.17
2018-03-29T21:55:25.466Z,11.82
2018-03-29T21:57:52.983Z,11.98
2018-03-29T22:00:20.500Z,10.00
2018-03-29T22:02:48.015Z,8.13
2018-03-29T22:05:15.530Z,9.90
2018-03-29T22:07:43.059Z,10.85
2018-03-29T22:10:11.982Z,10.93
2018-03-29T22:29:57.160Z,18.83
2018-03-29T22:32:25.454Z,12.85
2018-03-29T22:34:53.013Z,18.80
2018-03-29T22:37:21.052Z,26.98
2018-03-29T22:39:49.356Z,14.60
2018-03-29T22:42:16.901Z,10.75
2018-03-29T22:44:44.430Z,14.45
2018-03-29T22:47:11.964Z,20.08
2018-03-29T22:49:39.477Z,18.70
2018-03-29T22:52:07.023Z,17.62
2018-03-29T22:54:35.322Z,15.65
2018-03-29T22:57:02.866Z,18.87
2018-03-29T22:59:31.323Z,14.32
2018-03-29T23:01:58.858Z,17.35
2018-03-29T23:04:26.371Z,20.62
2018-03-29T23:06:53.911Z,17.87
2018-03-29T23:09:21.468Z,19.87
2018-03-29T23:11:49.000Z,12.85
2018-03-29T23:14:16.523Z,16.52
2018-03-29T23:16:44.087Z,16.98
2018-03-29T23:19:11.615Z,20.15
2018-03-29T23:21:39.908Z,32.22
2018-03-29T23:24:08.208Z,15.95
2018-03-29T23:26:35.732Z,14.13
2018-03-29T23:29:03.260Z,13.80
2018-03-29T23:31:30.782Z,15.55
2018-03-29T23:33:58.323Z,15.27
2018-03-29T23:36:25.855Z,14.80
2018-03-29T23:38:53.426Z,17.50
2018-03-29T23:41:21.721Z,15.88
2018-03-29T23:43:50.035Z,19.95
2018-03-29T23:46:17.542Z,11.75
2018-03-29T23:48:45.892Z,15.25
2018-03-29T23:51:13.426Z,21.60
2018-03-29T23:53:40.959Z,14.18
2018-03-29T23:56:09.247Z,14.95
2018-03-29T23:58:37.563Z,14.68
